sensor_id;sensor_type;location;lat;lon;timestamp;P1;durP1;ratioP1;P2;durP2;ratioP2
21705;SDS011;11014;53.076;18.208;2024-01-07T00:01:45;7.20;;;3.42;;
21705;SDS011;11014;53.076;18.208;2024-01-07T00:09:37;6.30;;;3.45;;
21705;SDS011;11014;53.076;18.208;2024-01-07T00:12:06;9.98;;;4.10;;
21705;SDS011;11014;53.076;18.208;2024-01-07T00:14:49;7.80;;;3.80;;
21705;SDS011;11014;53.076;18.208;2024-01-07T00:17:18;10.35;;;4.63;;
21705;SDS011;11014;53.076;18.208;2024-01-07T00:22:50;32.08;;;13.07;;
21705;SDS011;11014;53.076;18.208;2024-01-07T00:25:18;23.70;;;7.93;;
21705;SDS011;11014;53.076;18.208;2024-01-07T00:27:47;8.55;;;4.38;;
21705;SDS011;11014;53.076;18.208;2024-01-07T00:30:40;10.10;;;5.20;;
21705;SDS011;11014;53.076;18.208;2024-01-07T00:33:15;12.43;;;5.20;;
21705;SDS011;11014;53.076;18.208;2024-01-07T00:35:45;12.13;;;5.55;;
21705;SDS011;11014;53.076;18.208;2024-01-07T00:38:52;11.07;;;4.97;;
21705;SDS011;11014;53.076;18.208;2024-01-07T00:41:21;11.77;;;4.97;;
21705;SDS011;11014;53.076;18.208;2024-01-07T00:43:49;12.63;;;4.82;;
21705;SDS011;11014;53.076;18.208;2024-01-07T00:46:18;10.63;;;4.53;;
21705;SDS011;11014;53.076;18.208;2024-01-07T00:48:46;10.10;;;4.55;;
21705;SDS011;11014;53.076;18.208;2024-01-07T00:51:15;10.45;;;4.85;;
21705;SDS011;11014;53.076;18.208;2024-01-07T00:53:44;9.80;;;5.20;;
21705;SDS011;11014;53.076;18.208;2024-01-07T00:56:12;8.75;;;4.28;;
21705;SDS011;11014;53.076;18.208;2024-01-07T00:58:41;13.88;;;5.57;;
21705;SDS011;11014;53.076;18.208;2024-01-07T01:01:10;11.75;;;4.68;;
21705;SDS011;11014;53.076;18.208;2024-01-07T01:03:38;11.00;;;5.55;;
21705;SDS011;11014;53.076;18.208;2024-01-07T01:06:07;8.32;;;4.30;;
21705;SDS011;11014;53.076;18.208;2024-01-07T01:08:36;10.38;;;5.15;;
21705;SDS011;11014;53.076;18.208;2024-01-07T01:11:14;11.70;;;4.72;;
21705;SDS011;11014;53.076;18.208;2024-01-07T01:13:45;10.23;;;5.03;;
21705;SDS011;11014;53.076;18.208;2024-01-07T01:19:23;8.02;;;4.18;;
21705;SDS011;11014;53.076;18.208;2024-01-07T01:24:47;11.55;;;5.15;;
21705;SDS011;11014;53.076;18.208;2024-01-07T01:27:17;10.20;;;5.25;;
21705;SDS011;11014;53.076;18.208;2024-01-07T01:29:46;16.63;;;5.93;;
21705;SDS011;11014;53.076;18.208;2024-01-07T01:36:25;18.83;;;5.80;;
21705;SDS011;11014;53.076;18.208;2024-01-07T01:38:54;13.68;;;5.38;;
21705;SDS011;11014;53.076;18.208;2024-01-07T01:41:23;11.40;;;5.00;;
21705;SDS011;11014;53.076;18.208;2024-01-07T01:43:55;15.02;;;6.15;;
21705;SDS011;11014;53.076;18.208;2024-01-07T01:46:31;17.60;;;6.40;;
21705;SDS011;11014;53.076;18.208;2024-01-07T01:49:02;13.32;;;5.55;;
21705;SDS011;11014;53.076;18.208;2024-01-07T01:51:31;16.88;;;6.32;;
21705;SDS011;11014;53.076;18.208;2024-01-07T01:54:00;16.58;;;6.47;;
21705;SDS011;11014;53.076;18.208;2024-01-07T01:56:31;13.15;;;5.93;;
21705;SDS011;11014;53.076;18.208;2024-01-07T01:59:01;10.73;;;5.63;;
21705;SDS011;11014;53.076;18.208;2024-01-07T02:04:23;11.10;;;5.22;;
21705;SDS011;11014;53.076;18.208;2024-01-07T02:06:52;10.60;;;5.50;;
21705;SDS011;11014;53.076;18.208;2024-01-07T02:09:22;11.15;;;5.15;;
21705;SDS011;11014;53.076;18.208;2024-01-07T02:12:03;11.18;;;5.13;;
21705;SDS011;11014;53.076;18.208;2024-01-07T02:18:01;10.40;;;5.53;;
21705;SDS011;11014;53.076;18.208;2024-01-07T02:20:30;13.45;;;5.63;;
21705;SDS011;11014;53.076;18.208;2024-01-07T02:23:01;10.85;;;5.72;;
21705;SDS011;11014;53.076;18.208;2024-01-07T02:25:35;11.20;;;5.18;;
21705;SDS011;11014;53.076;18.208;2024-01-07T02:28:07;13.95;;;5.57;;
21705;SDS011;11014;53.076;18.208;2024-01-07T02:30:36;10.63;;;5.45;;
21705;SDS011;11014;53.076;18.208;2024-01-07T02:33:08;11.10;;;4.90;;
21705;SDS011;11014;53.076;18.208;2024-01-07T02:36:07;8.50;;;4.32;;
21705;SDS011;11014;53.076;18.208;2024-01-07T02:38:36;10.27;;;5.47;;
21705;SDS011;11014;53.076;18.208;2024-01-07T02:43:59;10.98;;;5.68;;
21705;SDS011;11014;53.076;18.208;2024-01-07T02:46:31;9.85;;;5.00;;
21705;SDS011;11014;53.076;18.208;2024-01-07T02:51:38;15.32;;;5.72;;
21705;SDS011;11014;53.076;18.208;2024-01-07T02:54:07;11.80;;;6.32;;
21705;SDS011;11014;53.076;18.208;2024-01-07T02:56:35;23.35;;;11.52;;
21705;SDS011;11014;53.076;18.208;2024-01-07T02:59:04;15.65;;;7.97;;
21705;SDS011;11014;53.076;18.208;2024-01-07T03:01:32;17.40;;;7.47;;
21705;SDS011;11014;53.076;18.208;2024-01-07T03:04:12;12.63;;;5.10;;
21705;SDS011;11014;53.076;18.208;2024-01-07T03:06:42;11.20;;;5.88;;
21705;SDS011;11014;53.076;18.208;2024-01-07T03:09:11;12.15;;;6.57;;
21705;SDS011;11014;53.076;18.208;2024-01-07T03:11:40;11.45;;;5.65;;
21705;SDS011;11014;53.076;18.208;2024-01-07T03:14:12;7.85;;;4.88;;
21705;SDS011;11014;53.076;18.208;2024-01-07T03:16:40;8.23;;;4.93;;
21705;SDS011;11014;53.076;18.208;2024-01-07T03:19:09;11.40;;;5.93;;
21705;SDS011;11014;53.076;18.208;2024-01-07T03:21:38;10.25;;;5.47;;
21705;SDS011;11014;53.076;18.208;2024-01-07T03:24:07;9.88;;;4.70;;
21705;SDS011;11014;53.076;18.208;2024-01-07T03:26:36;9.75;;;4.45;;
21705;SDS011;11014;53.076;18.208;2024-01-07T03:29:05;9.23;;;4.63;;
21705;SDS011;11014;53.076;18.208;2024-01-07T03:31:33;8.30;;;4.80;;
21705;SDS011;11014;53.076;18.208;2024-01-07T03:34:02;9.90;;;4.53;;
21705;SDS011;11014;53.076;18.208;2024-01-07T03:36:31;9.30;;;5.00;;
21705;SDS011;11014;53.076;18.208;2024-01-07T03:39:00;8.65;;;4.93;;
21705;SDS011;11014;53.076;18.208;2024-01-07T03:41:28;10.10;;;4.60;;
21705;SDS011;11014;53.076;18.208;2024-01-07T03:43:57;8.35;;;5.07;;
21705;SDS011;11014;53.076;18.208;2024-01-07T03:46:26;8.35;;;4.85;;
21705;SDS011;11014;53.076;18.208;2024-01-07T03:48:54;7.20;;;3.75;;
21705;SDS011;11014;53.076;18.208;2024-01-07T03:51:23;10.20;;;5.20;;
21705;SDS011;11014;53.076;18.208;2024-01-07T03:53:52;7.75;;;4.53;;
21705;SDS011;11014;53.076;18.208;2024-01-07T03:56:20;10.23;;;4.72;;
21705;SDS011;11014;53.076;18.208;2024-01-07T03:58:49;8.77;;;4.63;;
21705;SDS011;11014;53.076;18.208;2024-01-07T04:01:17;12.25;;;4.90;;
21705;SDS011;11014;53.076;18.208;2024-01-07T04:03:47;7.90;;;4.38;;
21705;SDS011;11014;53.076;18.208;2024-01-07T04:06:15;11.32;;;4.97;;
21705;SDS011;11014;53.076;18.208;2024-01-07T04:08:44;9.15;;;4.32;;
21705;SDS011;11014;53.076;18.208;2024-01-07T04:11:12;8.50;;;4.72;;
21705;SDS011;11014;53.076;18.208;2024-01-07T04:13:41;8.88;;;4.30;;
21705;SDS011;11014;53.076;18.208;2024-01-07T04:16:19;10.75;;;4.95;;
21705;SDS011;11014;53.076;18.208;2024-01-07T04:18:49;11.38;;;5.38;;
21705;SDS011;11014;53.076;18.208;2024-01-07T04:21:21;9.15;;;4.78;;
21705;SDS011;11014;53.076;18.208;2024-01-07T04:23:50;12.20;;;5.57;;
21705;SDS011;11014;53.076;18.208;2024-01-07T04:26:18;10.10;;;5.03;;
21705;SDS011;11014;53.076;18.208;2024-01-07T04:28:47;12.77;;;6.25;;
21705;SDS011;11014;53.076;18.208;2024-01-07T04:31:16;15.05;;;7.40;;
21705;SDS011;11014;53.076;18.208;2024-01-07T04:33:45;15.38;;;7.63;;
21705;SDS011;11014;53.076;18.208;2024-01-07T04:36:13;9.93;;;5.85;;
21705;SDS011;11014;53.076;18.208;2024-01-07T04:38:42;13.10;;;5.63;;
21705;SDS011;11014;53.076;18.208;2024-01-07T04:41:10;10.13;;;5.45;;
21705;SDS011;11014;53.076;18.208;2024-01-07T04:43:39;10.43;;;5.32;;
21705;SDS011;11014;53.076;18.208;2024-01-07T04:46:10;6.47;;;3.47;;
21705;SDS011;11014;53.076;18.208;2024-01-07T04:48:39;8.70;;;5.00;;
21705;SDS011;11014;53.076;18.208;2024-01-07T04:51:08;11.45;;;5.28;;
21705;SDS011;11014;53.076;18.208;2024-01-07T04:53:37;10.57;;;5.10;;
21705;SDS011;11014;53.076;18.208;2024-01-07T04:56:05;9.05;;;4.82;;
21705;SDS011;11014;53.076;18.208;2024-01-07T04:58:34;7.38;;;4.22;;
21705;SDS011;11014;53.076;18.208;2024-01-07T05:01:03;9.43;;;5.15;;
21705;SDS011;11014;53.076;18.208;2024-01-07T05:03:32;11.00;;;4.53;;
21705;SDS011;11014;53.076;18.208;2024-01-07T05:06:02;9.73;;;4.80;;
21705;SDS011;11014;53.076;18.208;2024-01-07T05:08:31;9.35;;;3.92;;
21705;SDS011;11014;53.076;18.208;2024-01-07T05:10:59;11.85;;;5.57;;
21705;SDS011;11014;53.076;18.208;2024-01-07T05:13:28;11.50;;;5.07;;
21705;SDS011;11014;53.076;18.208;2024-01-07T05:15:56;9.82;;;5.40;;
21705;SDS011;11014;53.076;18.208;2024-01-07T05:18:25;9.80;;;4.93;;
21705;SDS011;11014;53.076;18.208;2024-01-07T05:20:54;8.88;;;4.82;;
21705;SDS011;11014;53.076;18.208;2024-01-07T05:23:23;14.73;;;5.57;;
21705;SDS011;11014;53.076;18.208;2024-01-07T05:25:51;10.05;;;5.18;;
21705;SDS011;11014;53.076;18.208;2024-01-07T05:28:20;9.63;;;5.00;;
21705;SDS011;11014;53.076;18.208;2024-01-07T05:30:49;10.48;;;4.95;;
21705;SDS011;11014;53.076;18.208;2024-01-07T05:33:21;9.02;;;5.07;;
21705;SDS011;11014;53.076;18.208;2024-01-07T05:35:50;8.80;;;4.90;;
21705;SDS011;11014;53.076;18.208;2024-01-07T05:38:18;11.15;;;3.75;;
21705;SDS011;11014;53.076;18.208;2024-01-07T05:40:47;7.55;;;3.90;;
21705;SDS011;11014;53.076;18.208;2024-01-07T05:43:16;8.77;;;5.47;;
21705;SDS011;11014;53.076;18.208;2024-01-07T05:45:46;10.63;;;6.05;;
21705;SDS011;11014;53.076;18.208;2024-01-07T05:48:15;9.45;;;5.28;;
21705;SDS011;11014;53.076;18.208;2024-01-07T05:50:43;8.88;;;4.95;;
21705;SDS011;11014;53.076;18.208;2024-01-07T05:53:12;7.40;;;3.92;;
21705;SDS011;11014;53.076;18.208;2024-01-07T05:55:40;12.90;;;4.90;;
21705;SDS011;11014;53.076;18.208;2024-01-07T05:58:09;9.35;;;4.65;;
21705;SDS011;11014;53.076;18.208;2024-01-07T06:00:42;10.63;;;5.80;;
21705;SDS011;11014;53.076;18.208;2024-01-07T06:03:11;11.93;;;4.95;;
21705;SDS011;11014;53.076;18.208;2024-01-07T06:05:40;11.40;;;5.18;;
21705;SDS011;11014;53.076;18.208;2024-01-07T06:08:09;9.10;;;4.78;;
21705;SDS011;11014;53.076;18.208;2024-01-07T06:10:38;9.52;;;5.32;;
21705;SDS011;11014;53.076;18.208;2024-01-07T06:13:07;13.45;;;5.55;;
21705;SDS011;11014;53.076;18.208;2024-01-07T06:15:36;10.10;;;5.32;;
21705;SDS011;11014;53.076;18.208;2024-01-07T06:18:05;9.05;;;4.25;;
21705;SDS011;11014;53.076;18.208;2024-01-07T06:20:33;7.30;;;4.45;;
21705;SDS011;11014;53.076;18.208;2024-01-07T06:23:02;9.45;;;4.70;;
21705;SDS011;11014;53.076;18.208;2024-01-07T06:25:30;5.70;;;2.92;;
21705;SDS011;11014;53.076;18.208;2024-01-07T06:27:59;8.02;;;4.05;;
21705;SDS011;11014;53.076;18.208;2024-01-07T06:30:28;8.88;;;4.63;;
21705;SDS011;11014;53.076;18.208;2024-01-07T06:32:56;9.60;;;4.35;;
21705;SDS011;11014;53.076;18.208;2024-01-07T06:35:25;7.55;;;4.05;;
21705;SDS011;11014;53.076;18.208;2024-01-07T06:37:54;6.82;;;3.72;;
21705;SDS011;11014;53.076;18.208;2024-01-07T06:40:23;6.55;;;3.95;;
21705;SDS011;11014;53.076;18.208;2024-01-07T06:42:51;7.05;;;4.13;;
21705;SDS011;11014;53.076;18.208;2024-01-07T06:45:20;9.73;;;5.00;;
21705;SDS011;11014;53.076;18.208;2024-01-07T06:47:49;8.65;;;3.97;;
21705;SDS011;11014;53.076;18.208;2024-01-07T06:50:18;10.95;;;5.25;;
21705;SDS011;11014;53.076;18.208;2024-01-07T06:52:48;9.65;;;4.40;;
21705;SDS011;11014;53.076;18.208;2024-01-07T06:55:17;13.15;;;5.72;;
21705;SDS011;11014;53.076;18.208;2024-01-07T06:57:45;18.27;;;8.18;;
21705;SDS011;11014;53.076;18.208;2024-01-07T07:00:14;15.68;;;6.68;;
21705;SDS011;11014;53.076;18.208;2024-01-07T07:02:43;13.85;;;6.95;;
21705;SDS011;11014;53.076;18.208;2024-01-07T07:05:12;18.67;;;9.45;;
21705;SDS011;11014;53.076;18.208;2024-01-07T07:07:41;17.63;;;8.23;;
21705;SDS011;11014;53.076;18.208;2024-01-07T07:10:09;13.90;;;7.20;;
21705;SDS011;11014;53.076;18.208;2024-01-07T07:12:38;13.10;;;5.97;;
21705;SDS011;11014;53.076;18.208;2024-01-07T07:15:07;31.25;;;11.85;;
21705;SDS011;11014;53.076;18.208;2024-01-07T07:17:38;19.20;;;7.50;;
21705;SDS011;11014;53.076;18.208;2024-01-07T07:20:07;9.13;;;5.47;;
21705;SDS011;11014;53.076;18.208;2024-01-07T07:22:37;16.55;;;7.00;;
21705;SDS011;11014;53.076;18.208;2024-01-07T07:25:05;21.35;;;9.18;;
21705;SDS011;11014;53.076;18.208;2024-01-07T07:27:34;55.75;;;20.73;;
21705;SDS011;11014;53.076;18.208;2024-01-07T07:30:04;15.32;;;7.13;;
21705;SDS011;11014;53.076;18.208;2024-01-07T07:32:40;24.67;;;11.45;;
21705;SDS011;11014;53.076;18.208;2024-01-07T07:35:10;44.25;;;17.30;;
21705;SDS011;11014;53.076;18.208;2024-01-07T07:37:38;19.80;;;9.48;;
21705;SDS011;11014;53.076;18.208;2024-01-07T07:40:07;35.85;;;14.00;;
21705;SDS011;11014;53.076;18.208;2024-01-07T07:42:36;85.45;;;30.65;;
21705;SDS011;11014;53.076;18.208;2024-01-07T07:45:05;13.32;;;6.63;;
21705;SDS011;11014;53.076;18.208;2024-01-07T07:47:34;24.08;;;10.13;;
21705;SDS011;11014;53.076;18.208;2024-01-07T07:50:03;41.22;;;18.40;;
21705;SDS011;11014;53.076;18.208;2024-01-07T07:52:32;15.50;;;8.02;;
21705;SDS011;11014;53.076;18.208;2024-01-07T07:55:00;21.95;;;9.77;;
21705;SDS011;11014;53.076;18.208;2024-01-07T07:57:29;13.77;;;5.95;;
21705;SDS011;11014;53.076;18.208;2024-01-07T07:59:58;32.40;;;13.57;;
21705;SDS011;11014;53.076;18.208;2024-01-07T08:02:32;31.13;;;13.90;;
21705;SDS011;11014;53.076;18.208;2024-01-07T08:05:01;27.35;;;12.65;;
21705;SDS011;11014;53.076;18.208;2024-01-07T08:07:30;24.80;;;9.95;;
21705;SDS011;11014;53.076;18.208;2024-01-07T08:10:01;17.27;;;7.65;;
21705;SDS011;11014;53.076;18.208;2024-01-07T08:12:43;16.48;;;7.72;;
21705;SDS011;11014;53.076;18.208;2024-01-07T08:15:11;15.18;;;7.40;;
21705;SDS011;11014;53.076;18.208;2024-01-07T08:17:41;18.15;;;7.70;;
21705;SDS011;11014;53.076;18.208;2024-01-07T08:20:09;18.52;;;9.15;;
21705;SDS011;11014;53.076;18.208;2024-01-07T08:22:39;19.30;;;8.27;;
21705;SDS011;11014;53.076;18.208;2024-01-07T08:25:07;22.73;;;9.25;;
21705;SDS011;11014;53.076;18.208;2024-01-07T08:27:37;16.55;;;8.13;;
21705;SDS011;11014;53.076;18.208;2024-01-07T08:30:06;13.27;;;7.05;;
21705;SDS011;11014;53.076;18.208;2024-01-07T08:32:35;20.25;;;8.82;;
21705;SDS011;11014;53.076;18.208;2024-01-07T08:35:04;16.42;;;8.02;;
21705;SDS011;11014;53.076;18.208;2024-01-07T08:37:41;12.57;;;6.30;;
21705;SDS011;11014;53.076;18.208;2024-01-07T08:40:11;12.70;;;6.63;;
21705;SDS011;11014;53.076;18.208;2024-01-07T08:42:42;17.88;;;8.48;;
21705;SDS011;11014;53.076;18.208;2024-01-07T08:45:14;17.98;;;8.50;;
21705;SDS011;11014;53.076;18.208;2024-01-07T08:47:43;16.92;;;8.30;;
21705;SDS011;11014;53.076;18.208;2024-01-07T08:50:29;10.27;;;5.47;;
21705;SDS011;11014;53.076;18.208;2024-01-07T08:53:14;15.95;;;8.02;;
21705;SDS011;11014;53.076;18.208;2024-01-07T08:55:43;13.93;;;8.27;;
21705;SDS011;11014;53.076;18.208;2024-01-07T08:58:15;16.20;;;8.07;;
21705;SDS011;11014;53.076;18.208;2024-01-07T09:00:47;16.92;;;8.25;;
21705;SDS011;11014;53.076;18.208;2024-01-07T09:03:16;16.83;;;8.82;;
21705;SDS011;11014;53.076;18.208;2024-01-07T09:05:46;15.13;;;8.25;;
21705;SDS011;11014;53.076;18.208;2024-01-07T09:08:16;15.07;;;7.50;;
21705;SDS011;11014;53.076;18.208;2024-01-07T09:10:44;13.73;;;7.03;;
21705;SDS011;11014;53.076;18.208;2024-01-07T09:13:14;13.60;;;6.22;;
21705;SDS011;11014;53.076;18.208;2024-01-07T09:15:44;17.95;;;8.15;;
21705;SDS011;11014;53.076;18.208;2024-01-07T09:18:18;11.00;;;5.28;;
21705;SDS011;11014;53.076;18.208;2024-01-07T09:20:50;16.35;;;9.25;;
21705;SDS011;11014;53.076;18.208;2024-01-07T09:23:20;7.50;;;3.90;;
21705;SDS011;11014;53.076;18.208;2024-01-07T09:25:49;14.23;;;6.45;;
21705;SDS011;11014;53.076;18.208;2024-01-07T09:28:18;14.30;;;6.95;;
21705;SDS011;11014;53.076;18.208;2024-01-07T09:30:46;12.98;;;6.60;;
21705;SDS011;11014;53.076;18.208;2024-01-07T09:33:15;20.40;;;8.13;;
21705;SDS011;11014;53.076;18.208;2024-01-07T09:35:44;17.83;;;8.50;;
21705;SDS011;11014;53.076;18.208;2024-01-07T09:38:13;16.02;;;7.03;;
21705;SDS011;11014;53.076;18.208;2024-01-07T09:40:42;13.82;;;7.43;;
21705;SDS011;11014;53.076;18.208;2024-01-07T09:43:13;21.73;;;9.95;;
21705;SDS011;11014;53.076;18.208;2024-01-07T09:45:42;25.88;;;12.02;;
21705;SDS011;11014;53.076;18.208;2024-01-07T09:48:15;14.27;;;6.03;;
21705;SDS011;11014;53.076;18.208;2024-01-07T09:50:44;15.07;;;6.03;;
21705;SDS011;11014;53.076;18.208;2024-01-07T09:53:17;15.40;;;8.90;;
21705;SDS011;11014;53.076;18.208;2024-01-07T09:55:52;13.32;;;6.43;;
21705;SDS011;11014;53.076;18.208;2024-01-07T09:58:44;32.10;;;9.40;;
21705;SDS011;11014;53.076;18.208;2024-01-07T10:01:17;12.82;;;6.40;;
21705;SDS011;11014;53.076;18.208;2024-01-07T10:03:46;12.82;;;5.78;;
21705;SDS011;11014;53.076;18.208;2024-01-07T10:06:17;12.13;;;6.57;;
21705;SDS011;11014;53.076;18.208;2024-01-07T10:08:48;16.33;;;7.22;;
21705;SDS011;11014;53.076;18.208;2024-01-07T10:11:16;9.93;;;6.03;;
21705;SDS011;11014;53.076;18.208;2024-01-07T10:13:45;13.45;;;6.65;;
21705;SDS011;11014;53.076;18.208;2024-01-07T10:16:16;14.90;;;6.38;;
21705;SDS011;11014;53.076;18.208;2024-01-07T10:18:44;13.68;;;7.05;;
21705;SDS011;11014;53.076;18.208;2024-01-07T10:21:13;18.02;;;8.18;;
21705;SDS011;11014;53.076;18.208;2024-01-07T10:23:42;16.08;;;5.35;;
21705;SDS011;11014;53.076;18.208;2024-01-07T10:26:10;10.85;;;5.95;;
21705;SDS011;11014;53.076;18.208;2024-01-07T10:28:54;11.73;;;6.68;;
21705;SDS011;11014;53.076;18.208;2024-01-07T10:31:22;15.40;;;7.40;;
21705;SDS011;11014;53.076;18.208;2024-01-07T10:33:52;15.38;;;7.78;;
21705;SDS011;11014;53.076;18.208;2024-01-07T10:36:20;13.93;;;6.78;;
21705;SDS011;11014;53.076;18.208;2024-01-07T10:38:50;21.77;;;7.68;;
21705;SDS011;11014;53.076;18.208;2024-01-07T10:41:19;14.68;;;5.65;;
21705;SDS011;11014;53.076;18.208;2024-01-07T10:43:48;11.25;;;5.68;;
21705;SDS011;11014;53.076;18.208;2024-01-07T10:46:17;12.02;;;5.63;;
21705;SDS011;11014;53.076;18.208;2024-01-07T10:54:35;16.70;;;7.00;;
21705;SDS011;11014;53.076;18.208;2024-01-07T11:00:00;12.98;;;6.45;;
21705;SDS011;11014;53.076;18.208;2024-01-07T11:02:40;11.85;;;6.18;;
21705;SDS011;11014;53.076;18.208;2024-01-07T11:06:03;14.85;;;6.72;;
21705;SDS011;11014;53.076;18.208;2024-01-07T11:09:14;21.00;;;8.95;;
21705;SDS011;11014;53.076;18.208;2024-01-07T11:12:07;16.50;;;6.93;;
21705;SDS011;11014;53.076;18.208;2024-01-07T11:14:40;19.10;;;8.82;;
21705;SDS011;11014;53.076;18.208;2024-01-07T11:17:13;24.23;;;9.98;;
21705;SDS011;11014;53.076;18.208;2024-01-07T11:19:51;15.45;;;7.90;;
21705;SDS011;11014;53.076;18.208;2024-01-07T11:22:27;15.52;;;7.10;;
21705;SDS011;11014;53.076;18.208;2024-01-07T11:24:57;13.18;;;6.85;;
21705;SDS011;11014;53.076;18.208;2024-01-07T11:27:31;11.75;;;5.88;;
21705;SDS011;11014;53.076;18.208;2024-01-07T11:30:02;18.88;;;7.75;;
21705;SDS011;11014;53.076;18.208;2024-01-07T11:32:35;11.40;;;6.35;;
21705;SDS011;11014;53.076;18.208;2024-01-07T11:35:04;10.55;;;5.65;;
21705;SDS011;11014;53.076;18.208;2024-01-07T11:37:33;12.27;;;6.70;;
21705;SDS011;11014;53.076;18.208;2024-01-07T11:40:04;13.52;;;6.35;;
21705;SDS011;11014;53.076;18.208;2024-01-07T11:42:34;9.98;;;5.53;;
21705;SDS011;11014;53.076;18.208;2024-01-07T11:45:04;14.38;;;7.93;;
21705;SDS011;11014;53.076;18.208;2024-01-07T11:47:33;11.80;;;6.38;;
21705;SDS011;11014;53.076;18.208;2024-01-07T11:50:02;15.38;;;7.82;;
21705;SDS011;11014;53.076;18.208;2024-01-07T11:52:32;19.73;;;9.00;;
21705;SDS011;11014;53.076;18.208;2024-01-07T11:55:03;9.18;;;5.55;;
21705;SDS011;11014;53.076;18.208;2024-01-07T11:57:33;12.80;;;6.93;;
21705;SDS011;11014;53.076;18.208;2024-01-07T12:00:02;11.07;;;6.72;;
21705;SDS011;11014;53.076;18.208;2024-01-07T12:02:40;12.98;;;6.68;;
21705;SDS011;11014;53.076;18.208;2024-01-07T12:05:08;12.27;;;6.53;;
21705;SDS011;11014;53.076;18.208;2024-01-07T12:07:39;13.07;;;6.75;;
21705;SDS011;11014;53.076;18.208;2024-01-07T12:10:08;13.35;;;7.07;;
21705;SDS011;11014;53.076;18.208;2024-01-07T12:12:40;24.35;;;10.43;;
21705;SDS011;11014;53.076;18.208;2024-01-07T12:15:10;55.22;;;25.42;;
21705;SDS011;11014;53.076;18.208;2024-01-07T12:25:53;141.52;;;54.80;;
21705;SDS011;11014;53.076;18.208;2024-01-07T12:28:22;34.05;;;16.13;;
21705;SDS011;11014;53.076;18.208;2024-01-07T12:30:52;24.27;;;11.52;;
21705;SDS011;11014;53.076;18.208;2024-01-07T12:33:22;29.45;;;15.02;;
21705;SDS011;11014;53.076;18.208;2024-01-07T12:35:50;62.22;;;28.90;;
21705;SDS011;11014;53.076;18.208;2024-01-07T12:38:26;25.58;;;12.65;;
21705;SDS011;11014;53.076;18.208;2024-01-07T12:40:55;22.40;;;11.23;;
21705;SDS011;11014;53.076;18.208;2024-01-07T12:43:24;39.08;;;19.10;;
21705;SDS011;11014;53.076;18.208;2024-01-07T12:45:53;20.00;;;8.18;;
21705;SDS011;11014;53.076;18.208;2024-01-07T12:48:23;22.25;;;11.40;;
21705;SDS011;11014;53.076;18.208;2024-01-07T12:50:52;21.88;;;11.65;;
21705;SDS011;11014;53.076;18.208;2024-01-07T12:53:21;14.65;;;8.35;;
21705;SDS011;11014;53.076;18.208;2024-01-07T12:55:49;15.73;;;9.13;;
21705;SDS011;11014;53.076;18.208;2024-01-07T12:58:18;18.17;;;9.52;;
21705;SDS011;11014;53.076;18.208;2024-01-07T13:00:48;18.05;;;8.82;;
21705;SDS011;11014;53.076;18.208;2024-01-07T13:03:17;30.83;;;12.15;;
21705;SDS011;11014;53.076;18.208;2024-01-07T13:05:49;19.73;;;9.40;;
21705;SDS011;11014;53.076;18.208;2024-01-07T13:08:19;17.83;;;9.25;;
21705;SDS011;11014;53.076;18.208;2024-01-07T13:11:14;29.60;;;12.82;;
21705;SDS011;11014;53.076;18.208;2024-01-07T13:13:46;20.23;;;10.55;;
21705;SDS011;11014;53.076;18.208;2024-01-07T13:16:18;45.22;;;14.50;;
21705;SDS011;11014;53.076;18.208;2024-01-07T13:18:47;24.75;;;11.07;;
21705;SDS011;11014;53.076;18.208;2024-01-07T13:24:11;44.40;;;15.20;;
21705;SDS011;11014;53.076;18.208;2024-01-07T13:26:40;42.88;;;15.23;;
21705;SDS011;11014;53.076;18.208;2024-01-07T13:29:13;25.90;;;10.60;;
21705;SDS011;11014;53.076;18.208;2024-01-07T13:31:41;19.35;;;8.80;;
21705;SDS011;11014;53.076;18.208;2024-01-07T13:34:11;18.83;;;9.55;;
21705;SDS011;11014;53.076;18.208;2024-01-07T13:36:46;22.02;;;9.13;;
21705;SDS011;11014;53.076;18.208;2024-01-07T13:39:16;25.85;;;10.70;;
21705;SDS011;11014;53.076;18.208;2024-01-07T13:41:45;25.50;;;11.48;;
21705;SDS011;11014;53.076;18.208;2024-01-07T13:44:14;60.88;;;18.70;;
21705;SDS011;11014;53.076;18.208;2024-01-07T13:46:46;21.85;;;10.75;;
21705;SDS011;11014;53.076;18.208;2024-01-07T13:49:16;25.73;;;11.65;;
21705;SDS011;11014;53.076;18.208;2024-01-07T13:51:45;19.90;;;9.55;;
21705;SDS011;11014;53.076;18.208;2024-01-07T13:54:15;52.42;;;20.92;;
21705;SDS011;11014;53.076;18.208;2024-01-07T13:56:45;47.10;;;20.05;;
21705;SDS011;11014;53.076;18.208;2024-01-07T13:59:13;74.65;;;21.23;;
21705;SDS011;11014;53.076;18.208;2024-01-07T14:01:53;138.27;;;38.25;;
21705;SDS011;11014;53.076;18.208;2024-01-07T14:04:24;208.55;;;52.40;;
21705;SDS011;11014;53.076;18.208;2024-01-07T14:09:24;158.23;;;46.00;;
21705;SDS011;11014;53.076;18.208;2024-01-07T14:11:53;209.15;;;60.25;;
21705;SDS011;11014;53.076;18.208;2024-01-07T14:14:21;83.55;;;25.05;;
21705;SDS011;11014;53.076;18.208;2024-01-07T14:16:50;41.00;;;17.08;;
21705;SDS011;11014;53.076;18.208;2024-01-07T14:19:19;118.65;;;36.15;;
21705;SDS011;11014;53.076;18.208;2024-01-07T14:21:48;231.10;;;76.35;;
21705;SDS011;11014;53.076;18.208;2024-01-07T14:24:17;44.60;;;18.63;;
21705;SDS011;11014;53.076;18.208;2024-01-07T14:26:46;77.43;;;31.90;;
21705;SDS011;11014;53.076;18.208;2024-01-07T14:29:16;34.75;;;13.90;;
21705;SDS011;11014;53.076;18.208;2024-01-07T14:31:47;28.10;;;13.00;;
21705;SDS011;11014;53.076;18.208;2024-01-07T14:34:32;29.50;;;13.70;;
21705;SDS011;11014;53.076;18.208;2024-01-07T14:37:05;37.83;;;15.40;;
21705;SDS011;11014;53.076;18.208;2024-01-07T14:39:39;43.97;;;20.75;;
21705;SDS011;11014;53.076;18.208;2024-01-07T14:42:08;42.90;;;18.35;;
21705;SDS011;11014;53.076;18.208;2024-01-07T14:44:40;103.03;;;35.65;;
21705;SDS011;11014;53.076;18.208;2024-01-07T14:47:18;59.53;;;24.90;;
21705;SDS011;11014;53.076;18.208;2024-01-07T14:49:49;55.35;;;22.00;;
21705;SDS011;11014;53.076;18.208;2024-01-07T14:52:19;20.50;;;10.95;;
21705;SDS011;11014;53.076;18.208;2024-01-07T14:54:50;42.85;;;18.60;;
21705;SDS011;11014;53.076;18.208;2024-01-07T14:57:23;25.48;;;12.93;;
21705;SDS011;11014;53.076;18.208;2024-01-07T14:59:54;26.92;;;12.23;;
21705;SDS011;11014;53.076;18.208;2024-01-07T15:02:23;25.63;;;12.27;;
21705;SDS011;11014;53.076;18.208;2024-01-07T15:04:52;31.33;;;13.73;;
21705;SDS011;11014;53.076;18.208;2024-01-07T15:07:23;42.58;;;16.13;;
21705;SDS011;11014;53.076;18.208;2024-01-07T15:09:55;28.38;;;12.43;;
21705;SDS011;11014;53.076;18.208;2024-01-07T15:12:24;20.90;;;8.68;;
21705;SDS011;11014;53.076;18.208;2024-01-07T15:14:53;23.30;;;10.35;;
21705;SDS011;11014;53.076;18.208;2024-01-07T15:17:22;32.53;;;10.90;;
21705;SDS011;11014;53.076;18.208;2024-01-07T15:19:51;18.95;;;8.68;;
21705;SDS011;11014;53.076;18.208;2024-01-07T15:22:21;24.02;;;10.35;;
21705;SDS011;11014;53.076;18.208;2024-01-07T15:24:50;18.17;;;9.05;;
21705;SDS011;11014;53.076;18.208;2024-01-07T15:27:38;17.42;;;8.65;;
21705;SDS011;11014;53.076;18.208;2024-01-07T15:30:20;15.98;;;7.40;;
21705;SDS011;11014;53.076;18.208;2024-01-07T15:32:49;20.17;;;9.65;;
21705;SDS011;11014;53.076;18.208;2024-01-07T15:35:19;13.80;;;7.00;;